sensor_id;sensor_type;location;lat;lon;timestamp;temperature;humidity
65040;HTU21D;51606;45.000;38.612;2024-03-08T04:36:30;2.08;77.72
65040;HTU21D;51606;45.000;38.612;2024-03-08T04:38:56;2.11;77.69
65040;HTU21D;51606;45.000;38.612;2024-03-08T04:41:23;2.14;77.69
65040;HTU21D;51606;45.000;38.612;2024-03-08T04:43:49;2.17;77.66
65040;HTU21D;51606;45.000;38.612;2024-03-08T04:46:18;2.20;77.64
65040;HTU21D;51606;45.000;38.612;2024-03-08T04:48:45;2.21;77.62
65040;HTU21D;51606;45.000;38.612;2024-03-08T04:51:14;2.22;77.67
65040;HTU21D;51606;45.000;38.612;2024-03-08T04:53:41;2.23;77.68
65040;HTU21D;51606;45.000;38.612;2024-03-08T04:56:13;2.26;77.68
65040;HTU21D;51606;45.000;38.612;2024-03-08T04:58:43;2.27;77.68
65040;HTU21D;51606;45.000;38.612;2024-03-08T05:01:09;2.29;77.71
65040;HTU21D;51606;45.000;38.612;2024-03-08T05:03:36;2.31;77.72
65040;HTU21D;51606;45.000;38.612;2024-03-08T05:06:07;2.36;77.68
65040;HTU21D;51606;45.000;38.612;2024-03-08T05:08:34;2.38;77.67
65040;HTU21D;51606;45.000;38.612;2024-03-08T05:11:03;2.40;77.68
65040;HTU21D;51606;45.000;38.612;2024-03-08T05:13:33;2.40;77.63
65040;HTU21D;51606;45.000;38.612;2024-03-08T05:16:05;2.40;77.69
65040;HTU21D;51606;45.000;38.612;2024-03-08T05:18:34;2.40;77.75
65040;HTU21D;51606;45.000;38.612;2024-03-08T05:21:04;2.41;77.74
65040;HTU21D;51606;45.000;38.612;2024-03-08T05:23:33;2.42;77.76
65040;HTU21D;51606;45.000;38.612;2024-03-08T05:26:00;2.43;77.84
65040;HTU21D;51606;45.000;38.612;2024-03-08T05:28:32;2.46;77.81
65040;HTU21D;51606;45.000;38.612;2024-03-08T05:30:59;2.47;77.82
65040;HTU21D;51606;45.000;38.612;2024-03-08T05:33:29;2.51;77.81
65040;HTU21D;51606;45.000;38.612;2024-03-08T05:35:55;2.50;77.72
65040;HTU21D;51606;45.000;38.612;2024-03-08T05:38:23;2.46;77.77
65040;HTU21D;51606;45.000;38.612;2024-03-08T05:40:53;2.42;77.88
65040;HTU21D;51606;45.000;38.612;2024-03-08T05:43:22;2.44;77.89
65040;HTU21D;51606;45.000;38.612;2024-03-08T05:45:49;2.42;77.89
65040;HTU21D;51606;45.000;38.612;2024-03-08T05:48:17;2.45;77.88
65040;HTU21D;51606;45.000;38.612;2024-03-08T05:50:44;2.46;77.85
65040;HTU21D;51606;45.000;38.612;2024-03-08T05:53:11;2.49;77.88
65040;HTU21D;51606;45.000;38.612;2024-03-08T05:55:40;2.50;77.81
65040;HTU21D;51606;45.000;38.612;2024-03-08T05:58:06;2.46;77.82
65040;HTU21D;51606;45.000;38.612;2024-03-08T06:00:42;2.47;77.90
65040;HTU21D;51606;45.000;38.612;2024-03-08T06:03:09;2.50;77.92
65040;HTU21D;51606;45.000;38.612;2024-03-08T06:05:37;2.53;77.87
65040;HTU21D;51606;45.000;38.612;2024-03-08T06:08:09;2.53;77.89
65040;HTU21D;51606;45.000;38.612;2024-03-08T06:10:37;2.55;77.85
65040;HTU21D;51606;45.000;38.612;2024-03-08T06:13:08;2.55;77.82
65040;HTU21D;51606;45.000;38.612;2024-03-08T06:15:34;2.55;77.85
65040;HTU21D;51606;45.000;38.612;2024-03-08T06:18:01;2.55;77.79
65040;HTU21D;51606;45.000;38.612;2024-03-08T06:20:31;2.56;77.92
65040;HTU21D;51606;45.000;38.612;2024-03-08T06:22:57;2.61;77.80
65040;HTU21D;51606;45.000;38.612;2024-03-08T06:25:24;2.64;77.78
65040;HTU21D;51606;45.000;38.612;2024-03-08T06:27:50;2.66;77.81
65040;HTU21D;51606;45.000;38.612;2024-03-08T06:30:22;2.70;77.73
65040;HTU21D;51606;45.000;38.612;2024-03-08T06:32:52;2.74;77.74
65040;HTU21D;51606;45.000;38.612;2024-03-08T06:35:19;2.79;77.69
65040;HTU21D;51606;45.000;38.612;2024-03-08T06:37:46;2.83;77.63
65040;HTU21D;51606;45.000;38.612;2024-03-08T06:40:13;2.81;77.56
65040;HTU21D;51606;45.000;38.612;2024-03-08T06:42:42;2.76;77.74
65040;HTU21D;51606;45.000;38.612;2024-03-08T06:45:09;2.78;77.74
65040;HTU21D;51606;45.000;38.612;2024-03-08T06:47:42;2.78;77.80
65040;HTU21D;51606;45.000;38.612;2024-03-08T06:50:13;2.78;77.76
65040;HTU21D;51606;45.000;38.612;2024-03-08T06:52:41;2.74;77.72
65040;HTU21D;51606;45.000;38.612;2024-03-08T06:55:21;2.71;77.83
65040;HTU21D;51606;45.000;38.612;2024-03-08T06:57:51;2.69;77.92
65040;HTU21D;51606;45.000;38.612;2024-03-08T07:00:20;2.72;77.95
65040;HTU21D;51606;45.000;38.612;2024-03-08T07:02:49;2.74;77.93
65040;HTU21D;51606;45.000;38.612;2024-03-08T07:05:19;2.76;77.89
65040;HTU21D;51606;45.000;38.612;2024-03-08T07:07:46;2.82;77.82
65040;HTU21D;51606;45.000;38.612;2024-03-08T07:10:15;2.80;77.85
65040;HTU21D;51606;45.000;38.612;2024-03-08T07:12:45;2.81;77.84
65040;HTU21D;51606;45.000;38.612;2024-03-08T07:15:12;2.80;77.82
65040;HTU21D;51606;45.000;38.612;2024-03-08T07:17:40;2.81;77.91
65040;HTU21D;51606;45.000;38.612;2024-03-08T07:20:07;2.84;77.79
65040;HTU21D;51606;45.000;38.612;2024-03-08T07:22:38;2.84;77.75
65040;HTU21D;51606;45.000;38.612;2024-03-08T07:25:08;2.86;77.79
65040;HTU21D;51606;45.000;38.612;2024-03-08T07:27:55;2.86;77.75
65040;HTU21D;51606;45.000;38.612;2024-03-08T07:30:25;2.85;77.76
65040;HTU21D;51606;45.000;38.612;2024-03-08T07:33:12;2.85;77.80
65040;HTU21D;51606;45.000;38.612;2024-03-08T07:35:42;2.93;77.80
65040;HTU21D;51606;45.000;38.612;2024-03-08T07:38:12;2.98;77.67
65040;HTU21D;51606;45.000;38.612;2024-03-08T07:40:41;2.99;77.54
65040;HTU21D;51606;45.000;38.612;2024-03-08T07:43:10;2.97;77.67
65040;HTU21D;51606;45.000;38.612;2024-03-08T07:45:40;3.00;77.69
65040;HTU21D;51606;45.000;38.612;2024-03-08T07:48:07;3.04;77.64
65040;HTU21D;51606;45.000;38.612;2024-03-08T07:50:39;3.08;77.56
65040;HTU21D;51606;45.000;38.612;2024-03-08T07:53:07;3.08;77.57
65040;HTU21D;51606;45.000;38.612;2024-03-08T07:55:34;3.09;77.62
65040;HTU21D;51606;45.000;38.612;2024-03-08T07:58:03;3.10;77.59
65040;HTU21D;51606;45.000;38.612;2024-03-08T08:00:33;3.13;77.64
65040;HTU21D;51606;45.000;38.612;2024-03-08T08:02:59;3.17;77.55
65040;HTU21D;51606;45.000;38.612;2024-03-08T08:05:55;3.17;77.55
65040;HTU21D;51606;45.000;38.612;2024-03-08T08:08:21;3.18;77.53
65040;HTU21D;51606;45.000;38.612;2024-03-08T08:10:50;3.23;77.60
65040;HTU21D;51606;45.000;38.612;2024-03-08T08:13:19;3.28;77.52
65040;HTU21D;51606;45.000;38.612;2024-03-08T08:15:48;3.40;77.44
65040;HTU21D;51606;45.000;38.612;2024-03-08T08:18:16;3.48;77.34
65040;HTU21D;51606;45.000;38.612;2024-03-08T08:20:45;3.57;77.19
65040;HTU21D;51606;45.000;38.612;2024-03-08T08:23:11;3.59;77.25
65040;HTU21D;51606;45.000;38.612;2024-03-08T08:25:41;3.63;77.27
65040;HTU21D;51606;45.000;38.612;2024-03-08T08:28:07;3.65;77.22
65040;HTU21D;51606;45.000;38.612;2024-03-08T08:30:47;3.67;77.27
65040;HTU21D;51606;45.000;38.612;2024-03-08T08:33:14;3.71;77.37
65040;HTU21D;51606;45.000;38.612;2024-03-08T08:35:47;3.74;77.26
65040;HTU21D;51606;45.000;38.612;2024-03-08T08:38:13;3.72;77.32
65040;HTU21D;51606;45.000;38.612;2024-03-08T08:40:43;3.68;77.44
65040;HTU21D;51606;45.000;38.612;2024-03-08T08:43:10;3.65;77.39
65040;HTU21D;51606;45.000;38.612;2024-03-08T08:45:39;3.63;77.56
65040;HTU21D;51606;45.000;38.612;2024-03-08T08:48:06;3.59;77.57
65040;HTU21D;51606;45.000;38.612;2024-03-08T08:50:33;3.64;77.59
65040;HTU21D;51606;45.000;38.612;2024-03-08T08:52:59;3.75;77.47
65040;HTU21D;51606;45.000;38.612;2024-03-08T08:55:28;3.84;77.34
65040;HTU21D;51606;45.000;38.612;2024-03-08T08:57:54;3.95;77.21
65040;HTU21D;51606;45.000;38.612;2024-03-08T09:00:24;3.97;77.07
65040;HTU21D;51606;45.000;38.612;2024-03-08T09:02:53;3.99;77.11
65040;HTU21D;51606;45.000;38.612;2024-03-08T09:05:26;4.04;77.17
65040;HTU21D;51606;45.000;38.612;2024-03-08T09:07:56;4.07;77.14
65040;HTU21D;51606;45.000;38.612;2024-03-08T09:10:25;4.10;77.15
65040;HTU21D;51606;45.000;38.612;2024-03-08T09:12:51;4.13;77.16
65040;HTU21D;51606;45.000;38.612;2024-03-08T09:15:20;4.18;77.18
65040;HTU21D;51606;45.000;38.612;2024-03-08T09:17:47;4.18;77.12
65040;HTU21D;51606;45.000;38.612;2024-03-08T09:20:14;4.22;77.21
65040;HTU21D;51606;45.000;38.612;2024-03-08T09:22:46;4.30;77.15
65040;HTU21D;51606;45.000;38.612;2024-03-08T09:25:21;4.37;77.01
65040;HTU21D;51606;45.000;38.612;2024-03-08T09:27:50;4.43;76.97
65040;HTU21D;51606;45.000;38.612;2024-03-08T09:30:23;4.47;76.93
65040;HTU21D;51606;45.000;38.612;2024-03-08T09:32:52;4.47;76.92
65040;HTU21D;51606;45.000;38.612;2024-03-08T09:35:19;4.47;76.93
65040;HTU21D;51606;45.000;38.612;2024-03-08T09:37:45;4.44;76.95
65040;HTU21D;51606;45.000;38.612;2024-03-08T09:40:17;4.42;77.04
65040;HTU21D;51606;45.000;38.612;2024-03-08T09:42:48;4.39;77.04
65040;HTU21D;51606;45.000;38.612;2024-03-08T09:45:14;4.33;77.13
65040;HTU21D;51606;45.000;38.612;2024-03-08T09:47:44;4.27;77.25
65040;HTU21D;51606;45.000;38.612;2024-03-08T09:50:13;4.20;77.37
65040;HTU21D;51606;45.000;38.612;2024-03-08T09:52:49;4.08;77.50
65040;HTU21D;51606;45.000;38.612;2024-03-08T09:55:17;4.04;77.68
65040;HTU21D;51606;45.000;38.612;2024-03-08T09:57:51;4.02;77.69
65040;HTU21D;51606;45.000;38.612;2024-03-08T10:00:39;3.98;77.71
65040;HTU21D;51606;45.000;38.612;2024-03-08T10:03:05;4.02;77.65
65040;HTU21D;51606;45.000;38.612;2024-03-08T10:05:31;4.04;77.58
65040;HTU21D;51606;45.000;38.612;2024-03-08T10:08:03;4.02;77.47
65040;HTU21D;51606;45.000;38.612;2024-03-08T10:10:36;3.94;77.48
65040;HTU21D;51606;45.000;38.612;2024-03-08T10:13:07;3.86;77.73
65040;HTU21D;51606;45.000;38.612;2024-03-08T10:15:39;3.80;77.72
65040;HTU21D;51606;45.000;38.612;2024-03-08T10:18:06;3.72;77.80
65040;HTU21D;51606;45.000;38.612;2024-03-08T10:20:33;3.68;77.87
65040;HTU21D;51606;45.000;38.612;2024-03-08T10:23:00;3.71;77.85
65040;HTU21D;51606;45.000;38.612;2024-03-08T10:25:32;3.72;77.75
65040;HTU21D;51606;45.000;38.612;2024-03-08T10:27:59;3.75;77.69
65040;HTU21D;51606;45.000;38.612;2024-03-08T10:30:25;3.82;77.63
65040;HTU21D;51606;45.000;38.612;2024-03-08T10:32:55;3.88;77.48
65040;HTU21D;51606;45.000;38.612;2024-03-08T10:35:30;3.98;77.31
65040;HTU21D;51606;45.000;38.612;2024-03-08T10:37:57;4.00;77.24
65040;HTU21D;51606;45.000;38.612;2024-03-08T10:40:29;4.03;77.19
65040;HTU21D;51606;45.000;38.612;2024-03-08T10:42:59;4.05;77.13
65040;HTU21D;51606;45.000;38.612;2024-03-08T10:45:36;4.09;77.08
65040;HTU21D;51606;45.000;38.612;2024-03-08T10:50:55;4.14;77.02
65040;HTU21D;51606;45.000;38.612;2024-03-08T10:53:29;4.16;76.98
65040;HTU21D;51606;45.000;38.612;2024-03-08T10:56:07;4.18;76.97
65040;HTU21D;51606;45.000;38.612;2024-03-08T10:58:36;4.18;76.97
65040;HTU21D;51606;45.000;38.612;2024-03-08T11:01:06;4.20;76.96
65040;HTU21D;51606;45.000;38.612;2024-03-08T11:03:45;4.21;76.95
65040;HTU21D;51606;45.000;38.612;2024-03-08T11:06:18;4.24;76.95
65040;HTU21D;51606;45.000;38.612;2024-03-08T11:08:49;4.26;76.91
65040;HTU21D;51606;45.000;38.612;2024-03-08T11:11:28;4.26;76.92
65040;HTU21D;51606;45.000;38.612;2024-03-08T11:14:03;4.29;76.94
65040;HTU21D;51606;45.000;38.612;2024-03-08T11:22:02;4.27;76.99
65040;HTU21D;51606;45.000;38.612;2024-03-08T11:24:39;4.35;77.01
65040;HTU21D;51606;45.000;38.612;2024-03-08T11:27:09;4.36;76.91
65040;HTU21D;51606;45.000;38.612;2024-03-08T11:29:38;4.35;76.94
65040;HTU21D;51606;45.000;38.612;2024-03-08T11:34:38;4.41;76.89
65040;HTU21D;51606;45.000;38.612;2024-03-08T11:37:14;4.37;76.97
65040;HTU21D;51606;45.000;38.612;2024-03-08T11:39:54;4.32;77.09
65040;HTU21D;51606;45.000;38.612;2024-03-08T11:42:31;4.24;77.11
65040;HTU21D;51606;45.000;38.612;2024-03-08T11:44:58;4.18;77.22
65040;HTU21D;51606;45.000;38.612;2024-03-08T11:47:27;4.20;77.34
65040;HTU21D;51606;45.000;38.612;2024-03-08T11:49:54;4.23;77.17
65040;HTU21D;51606;45.000;38.612;2024-03-08T11:52:20;4.18;77.18
65040;HTU21D;51606;45.000;38.612;2024-03-08T11:54:54;4.17;77.22
65040;HTU21D;51606;45.000;38.612;2024-03-08T11:57:23;4.16;77.26
65040;HTU21D;51606;45.000;38.612;2024-03-08T11:59:55;4.14;77.26
65040;HTU21D;51606;45.000;38.612;2024-03-08T12:02:37;4.19;77.20
65040;HTU21D;51606;45.000;38.612;2024-03-08T12:05:08;4.19;77.08
65040;HTU21D;51606;45.000;38.612;2024-03-08T12:07:42;4.15;77.07
65040;HTU21D;51606;45.000;38.612;2024-03-08T12:12:49;4.07;77.29
65040;HTU21D;51606;45.000;38.612;2024-03-08T12:15:20;4.09;77.23
65040;HTU21D;51606;45.000;38.612;2024-03-08T12:17:51;4.12;77.21
65040;HTU21D;51606;45.000;38.612;2024-03-08T12:20:28;4.13;77.14
65040;HTU21D;51606;45.000;38.612;2024-03-08T12:23:04;4.16;77.09
65040;HTU21D;51606;45.000;38.612;2024-03-08T12:25:32;4.17;77.04
65040;HTU21D;51606;45.000;38.612;2024-03-08T12:28:11;4.16;77.01
65040;HTU21D;51606;45.000;38.612;2024-03-08T12:30:54;4.15;77.00
65040;HTU21D;51606;45.000;38.612;2024-03-08T12:33:28;4.14;76.98
65040;HTU21D;51606;45.000;38.612;2024-03-08T12:36:02;4.14;76.98
65040;HTU21D;51606;45.000;38.612;2024-03-08T12:38:33;4.12;76.98
65040;HTU21D;51606;45.000;38.612;2024-03-08T12:41:04;4.13;76.98
65040;HTU21D;51606;45.000;38.612;2024-03-08T12:43:37;4.13;76.95
65040;HTU21D;51606;45.000;38.612;2024-03-08T12:46:03;4.10;76.98
65040;HTU21D;51606;45.000;38.612;2024-03-08T12:48:37;4.08;76.97
65040;HTU21D;51606;45.000;38.612;2024-03-08T12:51:07;4.07;76.98
65040;HTU21D;51606;45.000;38.612;2024-03-08T12:53:37;4.06;76.98
65040;HTU21D;51606;45.000;38.612;2024-03-08T12:56:07;4.04;76.96
65040;HTU21D;51606;45.000;38.612;2024-03-08T12:58:35;4.00;77.02
65040;HTU21D;51606;45.000;38.612;2024-03-08T13:01:03;3.98;77.01
65040;HTU21D;51606;45.000;38.612;2024-03-08T13:03:36;3.93;77.11
65040;HTU21D;51606;45.000;38.612;2024-03-08T13:06:04;3.87;77.13
65040;HTU21D;51606;45.000;38.612;2024-03-08T13:08:40;3.82;77.28
65040;HTU21D;51606;45.000;38.612;2024-03-08T13:11:09;3.75;77.31
65040;HTU21D;51606;45.000;38.612;2024-03-08T13:13:40;3.64;77.39
65040;HTU21D;51606;45.000;38.612;2024-03-08T13:16:07;3.58;77.53
65040;HTU21D;51606;45.000;38.612;2024-03-08T13:18:35;3.49;77.57
65040;HTU21D;51606;45.000;38.612;2024-03-08T13:21:10;3.46;77.61
65040;HTU21D;51606;45.000;38.612;2024-03-08T13:23:41;3.44;77.62
65040;HTU21D;51606;45.000;38.612;2024-03-08T13:26:13;3.45;77.53
65040;HTU21D;51606;45.000;38.612;2024-03-08T13:28:47;3.46;77.46
65040;HTU21D;51606;45.000;38.612;2024-03-08T13:31:15;3.43;77.39
65040;HTU21D;51606;45.000;38.612;2024-03-08T13:33:45;3.41;77.42
65040;HTU21D;51606;45.000;38.612;2024-03-08T13:36:13;3.43;77.39
65040;HTU21D;51606;45.000;38.612;2024-03-08T13:38:51;3.48;77.27
65040;HTU21D;51606;45.000;38.612;2024-03-08T13:41:18;3.49;77.19
65040;HTU21D;51606;45.000;38.612;2024-03-08T13:43:48;3.48;77.10
65040;HTU21D;51606;45.000;38.612;2024-03-08T13:46:24;3.44;77.18
65040;HTU21D;51606;45.000;38.612;2024-03-08T13:48:52;3.39;77.24
65040;HTU21D;51606;45.000;38.612;2024-03-08T13:51:31;3.34;77.34
65040;HTU21D;51606;45.000;38.612;2024-03-08T13:53:58;3.31;77.37
65040;HTU21D;51606;45.000;38.612;2024-03-08T13:56:28;3.26;77.42
65040;HTU21D;51606;45.000;38.612;2024-03-08T13:58:57;3.20;77.47
65040;HTU21D;51606;45.000;38.612;2024-03-08T14:01:27;3.16;77.47
65040;HTU21D;51606;45.000;38.612;2024-03-08T14:03:53;3.13;77.51
65040;HTU21D;51606;45.000;38.612;2024-03-08T14:06:20;3.05;77.52
65040;HTU21D;51606;45.000;38.612;2024-03-08T14:08:46;3.04;77.58
65040;HTU21D;51606;45.000;38.612;2024-03-08T14:11:15;3.03;77.52
65040;HTU21D;51606;45.000;38.612;2024-03-08T14:13:45;3.04;77.47
65040;HTU21D;51606;45.000;38.612;2024-03-08T14:16:12;3.03;77.44
65040;HTU21D;51606;45.000;38.612;2024-03-08T14:18:47;3.08;77.37
65040;HTU21D;51606;45.000;38.612;2024-03-08T14:21:17;3.10;77.28
65040;HTU21D;51606;45.000;38.612;2024-03-08T14:23:43;3.11;77.23
65040;HTU21D;51606;45.000;38.612;2024-03-08T14:26:12;3.11;77.19
65040;HTU21D;51606;45.000;38.612;2024-03-08T14:28:44;3.12;77.18
65040;HTU21D;51606;45.000;38.612;2024-03-08T14:31:12;3.13;77.16
65040;HTU21D;51606;45.000;38.612;2024-03-08T14:33:38;3.12;77.14
65040;HTU21D;51606;45.000;38.612;2024-03-08T14:36:05;3.13;77.12
65040;HTU21D;51606;45.000;38.612;2024-03-08T14:38:34;3.11;77.11
65040;HTU21D;51606;45.000;38.612;2024-03-08T14:41:07;3.06;77.13
65040;HTU21D;51606;45.000;38.612;2024-03-08T14:43:33;3.02;77.24
65040;HTU21D;51606;45.000;38.612;2024-03-08T14:46:02;3.01;77.27
65040;HTU21D;51606;45.000;38.612;2024-03-08T14:48:29;2.98;77.24
65040;HTU21D;51606;45.000;38.612;2024-03-08T14:50:55;2.94;77.37
65040;HTU21D;51606;45.000;38.612;2024-03-08T14:53:25;2.93;77.37
65040;HTU21D;51606;45.000;38.612;2024-03-08T14:55:53;2.91;77.32
65040;HTU21D;51606;45.000;38.612;2024-03-08T14:58:23;2.87;77.31
65040;HTU21D;51606;45.000;38.612;2024-03-08T15:00:55;2.80;77.40
65040;HTU21D;51606;45.000;38.612;2024-03-08T15:03:28;2.69;77.50
65040;HTU21D;51606;45.000;38.612;2024-03-08T15:05:55;2.60;77.66
65040;HTU21D;51606;45.000;38.612;2024-03-08T15:08:21;2.58;77.70
65040;HTU21D;51606;45.000;38.612;2024-03-08T15:10:50;2.56;77.63
65040;HTU21D;51606;45.000;38.612;2024-03-08T15:13:20;2.54;77.64
65040;HTU21D;51606;45.000;38.612;2024-03-08T15:15:56;2.52;77.61
65040;HTU21D;51606;45.000;38.612;2024-03-08T15:18:24;2.51;77.58
65040;HTU21D;51606;45.000;38.612;2024-03-08T15:21:00;2.52;77.51
65040;HTU21D;51606;45.000;38.612;2024-03-08T15:23:27;2.50;77.49
65040;HTU21D;51606;45.000;38.612;2024-03-08T15:25:53;2.51;77.44
65040;HTU21D;51606;45.000;38.612;2024-03-08T15:28:20;2.49;77.44
65040;HTU21D;51606;45.000;38.612;2024-03-08T15:30:55;2.50;77.44
65040;HTU21D;51606;45.000;38.612;2024-03-08T15:33:31;2.49;77.41
65040;HTU21D;51606;45.000;38.612;2024-03-08T15:35:57;2.49;77.39
65040;HTU21D;51606;45.000;38.612;2024-03-08T15:38:29;2.50;77.35
65040;HTU21D;51606;45.000;38.612;2024-03-08T15:41:01;2.50;77.31
65040;HTU21D;51606;45.000;38.612;2024-03-08T15:43:33;2.51;77.31
65040;HTU21D;51606;45.000;38.612;2024-03-08T15:46:04;2.51;77.29
65040;HTU21D;51606;45.000;38.612;2024-03-08T15:48:34;2.53;77.27
65040;HTU21D;51606;45.000;38.612;2024-03-08T15:51:06;2.53;77.24
65040;HTU21D;51606;45.000;38.612;2024-03-08T15:53:36;2.51;77.22
65040;HTU21D;51606;45.000;38.612;2024-03-08T15:56:06;2.47;77.26
65040;HTU21D;51606;45.000;38.612;2024-03-08T15:58:36;2.46;77.31
65040;HTU21D;51606;45.000;38.612;2024-03-08T16:01:05;2.43;77.32
65040;HTU21D;51606;45.000;38.612;2024-03-08T16:03:41;2.43;77.34
65040;HTU21D;51606;45.000;38.612;2024-03-08T16:06:08;2.44;77.33
65040;HTU21D;51606;45.000;38.612;2024-03-08T16:08:34;2.44;77.31
65040;HTU21D;51606;45.000;38.612;2024-03-08T16:11:05;2.44;77.29
65040;HTU21D;51606;45.000;38.612;2024-03-08T16:13:33;2.44;77.30
65040;HTU21D;51606;45.000;38.612;2024-03-08T16:16:04;2.45;77.27
65040;HTU21D;51606;45.000;38.612;2024-03-08T16:18:33;2.45;77.25
65040;HTU21D;51606;45.000;38.612;2024-03-08T16:21:09;2.40;77.28
65040;HTU21D;51606;45.000;38.612;2024-03-08T16:23:35;2.39;77.34
65040;HTU21D;51606;45.000;38.612;2024-03-08T16:26:05;2.32;77.40
65040;HTU21D;51606;45.000;38.612;2024-03-08T16:28:31;2.26;77.53
65040;HTU21D;51606;45.000;38.612;2024-03-08T16:31:07;2.24;77.56
65040;HTU21D;51606;45.000;38.612;2024-03-08T16:33:39;2.20;77.57
65040;HTU21D;51606;45.000;38.612;2024-03-08T16:36:06;2.16;77.60
65040;HTU21D;51606;45.000;38.612;2024-03-08T16:38:33;2.15;77.63
65040;HTU21D;51606;45.000;38.612;2024-03-08T16:41:02;2.15;77.55
65040;HTU21D;51606;45.000;38.612;2024-03-08T16:43:29;2.14;77.51
65040;HTU21D;51606;45.000;38.612;2024-03-08T16:45:58;2.13;77.53
65040;HTU21D;51606;45.000;38.612;2024-03-08T16:48:28;2.10;77.53
65040;HTU21D;51606;45.000;38.612;2024-03-08T16:50:56;2.09;77.55
65040;HTU21D;51606;45.000;38.612;2024-03-08T16:53:22;2.10;77.56
65040;HTU21D;51606;45.000;38.612;2024-03-08T16:55:50;2.12;77.53
65040;HTU21D;51606;45.000;38.612;2024-03-08T16:58:18;2.15;77.44
65040;HTU21D;51606;45.000;38.612;2024-03-08T17:00:48;2.19;77.38
65040;HTU21D;51606;45.000;38.612;2024-03-08T17:03:15;2.21;77.33
65040;HTU21D;51606;45.000;38.612;2024-03-08T17:05:45;2.24;77.29
65040;HTU21D;51606;45.000;38.612;2024-03-08T17:08:19;2.25;77.24
65040;HTU21D;51606;45.000;38.612;2024-03-08T17:10:48;2.26;77.23
65040;HTU21D;51606;45.000;38.612;2024-03-08T17:13:14;2.26;77.24
65040;HTU21D;51606;45.000;38.612;2024-03-08T17:15:49;2.24;77.24
65040;HTU21D;51606;45.000;38.612;2024-03-08T17:18:18;2.24;77.27
65040;HTU21D;51606;45.000;38.612;2024-03-08T17:20:45;2.22;77.31
65040;HTU21D;51606;45.000;38.612;2024-03-08T17:23:11;2.19;77.35
65040;HTU21D;51606;45.000;38.612;2024-03-08T17:25:39;2.14;77.40
65040;HTU21D;51606;45.000;38.612;2024-03-08T17:28:06;2.11;77.47
65040;HTU21D;51606;45.000;38.612;2024-03-08T17:30:34;2.07;77.52
65040;HTU21D;51606;45.000;38.612;2024-03-08T17:33:04;2.03;77.58
